createdAt,value
2019-05-18T00:00:04.663Z,31.20
2019-05-18T00:02:58.973Z,31.20
2019-05-18T00:05:52.007Z,31.20
2019-05-18T00:08:45.367Z,31.20
2019-05-18T00:11:38.815Z,31.20
2019-05-18T00:14:31.854Z,31.20
2019-05-18T00:17:25.556Z,31.20
2019-05-18T00:20:18.602Z,31.20
2019-05-18T00:23:11.715Z,31.20
2019-05-18T00:26:04.825Z,31.20
2019-05-18T00:28:59.618Z,31.20
2019-05-18T00:31:54.208Z,31.20
2019-05-18T00:34:49.657Z,31.20
2019-05-18T00:37:43.706Z,31.20
2019-05-18T00:40:38.523Z,31.20
2019-05-18T00:43:32.527Z,31.20
2019-05-18T00:46:29.516Z,31.20
2019-05-18T00:49:23.731Z,31.20
2019-05-18T00:52:17.700Z,31.20
2019-05-18T00:55:11.941Z,31.20
2019-05-18T00:58:05.954Z,31.20
2019-05-18T01:00:59.951Z,31.20
2019-05-18T01:03:54.672Z,31.20
2019-05-18T01:06:50.746Z,31.20
2019-05-18T01:09:47.891Z,31.20
2019-05-18T01:12:45.312Z,31.10
2019-05-18T01:15:41.322Z,31.20
2019-05-18T01:18:38.681Z,31.20
2019-05-18T01:21:33.854Z,31.20
2019-05-18T01:24:29.601Z,31.20
2019-05-18T01:27:25.119Z,31.20
2019-05-18T01:30:21.004Z,31.20
2019-05-18T01:33:16.850Z,31.20
2019-05-18T01:36:17.345Z,31.20
2019-05-18T01:39:13.210Z,31.20
2019-05-18T01:42:11.407Z,31.20
2019-05-18T01:45:16.276Z,31.20
2019-05-18T01:48:13.189Z,31.20
2019-05-18T01:50:56.283Z,31.20
2019-05-18T01:53:50.634Z,31.20
2019-05-18T01:56:44.124Z,31.30
2019-05-18T01:59:38.445Z,31.20
2019-05-18T02:02:31.819Z,31.30
2019-05-18T02:05:25.959Z,31.20
2019-05-18T02:08:19.349Z,31.20
2019-05-18T02:11:13.371Z,31.30
2019-05-18T02:14:06.939Z,31.30
2019-05-18T02:17:01.402Z,31.30
2019-05-18T02:19:55.415Z,31.30
2019-05-18T02:22:49.566Z,31.30
2019-05-18T02:25:43.250Z,31.30
2019-05-18T02:28:37.512Z,31.30
2019-05-18T02:31:31.222Z,31.30
2019-05-18T02:34:27.691Z,31.30
2019-05-18T02:37:21.316Z,31.40
2019-05-18T02:40:17.699Z,31.30
2019-05-18T02:43:11.568Z,31.30
2019-05-18T02:46:06.137Z,31.30
2019-05-18T02:49:00.738Z,31.30
2019-05-18T02:51:55.912Z,31.30
2019-05-18T02:54:50.725Z,31.30
2019-05-18T02:57:43.959Z,31.30
2019-05-18T03:00:37.926Z,31.30
2019-05-18T03:03:31.921Z,31.30
2019-05-18T03:06:24.993Z,31.30
2019-05-18T03:09:18.730Z,31.30
2019-05-18T03:12:12.279Z,31.30
2019-05-18T03:15:05.743Z,31.30
2019-05-18T03:17:59.912Z,31.40
2019-05-18T03:20:53.647Z,31.30
2019-05-18T03:23:47.202Z,31.30
2019-05-18T03:26:41.277Z,31.30
2019-05-18T03:29:35.027Z,31.40
2019-05-18T03:32:30.266Z,31.40
2019-05-18T03:35:26.307Z,31.30
2019-05-18T03:38:21.352Z,31.40
2019-05-18T03:41:15.614Z,31.40
2019-05-18T03:44:11.655Z,31.40
2019-05-18T03:47:06.688Z,31.40
2019-05-18T03:50:00.448Z,31.40
2019-05-18T03:52:54.710Z,31.40
2019-05-18T03:55:48.480Z,31.40
2019-05-18T03:58:41.618Z,31.40
2019-05-18T04:01:35.553Z,31.40
2019-05-18T04:04:30.093Z,31.40
2019-05-18T04:07:23.819Z,31.40
2019-05-18T04:10:17.004Z,31.40
2019-05-18T04:13:10.916Z,31.40
2019-05-18T04:16:04.691Z,31.40
2019-05-18T04:18:57.732Z,31.40
2019-05-18T04:21:50.957Z,31.40
2019-05-18T04:24:44.199Z,31.40
2019-05-18T04:27:37.747Z,31.40
2019-05-18T04:30:31.166Z,31.40
2019-05-18T04:33:24.502Z,31.40
2019-05-18T04:36:19.556Z,31.40
2019-05-18T04:39:13.286Z,31.40
2019-05-18T04:42:07.272Z,31.40
2019-05-18T04:45:01.173Z,31.40
2019-05-18T04:47:56.080Z,31.40
2019-05-18T04:50:49.991Z,31.40
2019-05-18T04:53:43.795Z,31.40
2019-05-18T04:56:37.809Z,31.40
2019-05-18T04:59:31.969Z,31.40
2019-05-18T05:02:26.828Z,31.50
2019-05-18T05:05:21.376Z,31.50
2019-05-18T05:08:16.432Z,31.40
2019-05-18T05:11:10.711Z,31.40
2019-05-18T05:14:04.973Z,31.50
2019-05-18T05:16:59.354Z,31.40
2019-05-18T05:19:53.487Z,31.50
2019-05-18T05:22:49.147Z,31.40
2019-05-18T05:25:42.801Z,31.40
2019-05-18T05:28:39.258Z,31.40
2019-05-18T05:31:34.919Z,31.40
2019-05-18T05:34:29.207Z,31.50
2019-05-18T05:37:24.178Z,31.50
2019-05-18T05:40:18.740Z,31.50
2019-05-18T05:43:13.422Z,31.50
2019-05-18T05:46:07.667Z,31.50
2019-05-18T05:49:02.959Z,31.50
2019-05-18T05:51:58.773Z,31.50
2019-05-18T05:54:55.147Z,31.50
2019-05-18T05:57:50.094Z,31.50
2019-05-18T06:00:46.288Z,31.50
2019-05-18T06:03:40.835Z,31.50
2019-05-18T06:06:35.862Z,31.50
2019-05-18T06:09:31.823Z,31.50
2019-05-18T06:12:25.439Z,31.50
2019-05-18T06:15:21.247Z,31.50
2019-05-18T06:18:15.654Z,31.50
2019-05-18T06:21:10.743Z,31.50
2019-05-18T06:24:07.060Z,31.50
2019-05-18T06:27:02.665Z,31.50
2019-05-18T06:29:58.324Z,31.50
2019-05-18T06:32:53.458Z,31.50
2019-05-18T06:35:50.426Z,31.50
2019-05-18T06:38:45.747Z,31.50
2019-05-18T06:41:41.981Z,31.50
2019-05-18T06:44:37.219Z,31.50
2019-05-18T06:47:32.933Z,31.50
2019-05-18T06:50:32.118Z,31.60
2019-05-18T06:53:26.345Z,31.50
2019-05-18T06:56:21.165Z,31.50
2019-05-18T06:59:17.386Z,31.60
2019-05-18T07:02:12.349Z,31.50
2019-05-18T07:05:08.753Z,31.50
2019-05-18T07:08:04.351Z,31.50
2019-05-18T07:10:59.674Z,31.60
2019-05-18T07:13:54.391Z,31.60
2019-05-18T07:16:50.296Z,31.60
2019-05-18T07:19:45.368Z,31.60
2019-05-18T07:22:39.742Z,31.60
2019-05-18T07:25:35.689Z,31.60
2019-05-18T07:28:30.305Z,31.60
2019-05-18T07:31:25.251Z,31.60
2019-05-18T07:34:19.848Z,31.60
2019-05-18T07:37:17.153Z,31.60
2019-05-18T07:40:11.566Z,31.60
2019-05-18T07:43:06.122Z,31.60
2019-05-18T07:46:01.566Z,31.60
2019-05-18T07:48:57.941Z,31.70
2019-05-18T07:51:52.687Z,31.60
2019-05-18T07:54:48.433Z,31.70
2019-05-18T07:57:41.728Z,31.70
2019-05-18T08:00:35.230Z,31.70
2019-05-18T08:03:28.315Z,31.70
2019-05-18T08:06:22.996Z,31.70
2019-05-18T08:09:16.109Z,31.70
2019-05-18T08:12:10.058Z,31.60
2019-05-18T08:15:04.336Z,31.70
2019-05-18T08:17:57.861Z,31.70
2019-05-18T08:20:51.498Z,31.70
2019-05-18T08:23:45.507Z,31.70
2019-05-18T08:26:38.909Z,31.70
2019-05-18T08:29:33.334Z,31.70
2019-05-18T08:32:28.041Z,31.70
2019-05-18T08:35:21.031Z,31.70
2019-05-18T08:38:13.897Z,31.70
2019-05-18T08:41:06.621Z,31.70
2019-05-18T08:43:59.097Z,31.70
2019-05-18T08:46:52.016Z,31.70
2019-05-18T08:49:45.033Z,31.70
2019-05-18T08:52:37.920Z,31.70
2019-05-18T08:55:31.490Z,31.70
2019-05-18T08:58:23.776Z,31.80
2019-05-18T09:01:17.684Z,31.80
2019-05-18T09:04:12.371Z,31.80
2019-05-18T09:07:04.889Z,31.70
2019-05-18T09:09:58.527Z,31.70
2019-05-18T09:12:52.984Z,31.70
2019-05-18T09:15:49.235Z,31.70
2019-05-18T09:18:42.710Z,31.70
2019-05-18T09:21:35.490Z,31.70
2019-05-18T09:24:28.263Z,31.80
2019-05-18T09:27:22.210Z,31.80
2019-05-18T09:30:17.265Z,31.80
2019-05-18T09:33:10.200Z,31.80
2019-05-18T09:36:05.632Z,31.80
2019-05-18T09:39:01.059Z,31.70
2019-05-18T09:41:56.628Z,31.70
2019-05-18T09:44:50.178Z,31.70
2019-05-18T09:47:44.017Z,31.80
2019-05-18T09:50:38.604Z,31.80
2019-05-18T09:53:31.399Z,31.80
2019-05-18T09:56:25.298Z,31.70
2019-05-18T09:59:20.167Z,31.80
2019-05-18T10:02:14.797Z,31.80
2019-05-18T10:05:09.997Z,31.80
2019-05-18T10:08:03.413Z,31.80
2019-05-18T10:10:55.992Z,31.80
2019-05-18T10:13:50.347Z,31.90
2019-05-18T10:16:46.462Z,31.80
2019-05-18T10:19:41.870Z,31.80
2019-05-18T10:22:35.124Z,31.90
2019-05-18T10:25:29.005Z,31.80
2019-05-18T10:28:24.148Z,31.80
2019-05-18T10:31:17.323Z,31.80
2019-05-18T10:34:10.550Z,31.80
2019-05-18T10:37:03.843Z,31.80
2019-05-18T10:39:57.480Z,31.90
2019-05-18T10:42:50.816Z,31.90
2019-05-18T10:45:46.181Z,31.90
2019-05-18T10:48:41.508Z,31.80
2019-05-18T10:51:37.557Z,31.80
2019-05-18T10:54:34.876Z,31.90
2019-05-18T10:57:32.249Z,31.90
2019-05-18T11:00:26.346Z,31.90
2019-05-18T11:03:19.610Z,31.90
2019-05-18T11:06:12.882Z,31.90
2019-05-18T11:09:07.044Z,31.90
2019-05-18T11:12:01.574Z,31.90
2019-05-18T11:14:54.438Z,31.90
2019-05-18T11:17:48.113Z,32.00
2019-05-18T11:20:42.057Z,31.90
2019-05-18T11:23:43.094Z,31.90
2019-05-18T11:26:32.547Z,31.80
2019-05-18T11:29:27.450Z,31.90
2019-05-18T11:32:19.893Z,31.90
2019-05-18T11:35:15.180Z,31.90
2019-05-18T11:38:08.258Z,31.80
2019-05-18T11:41:02.649Z,31.90
2019-05-18T11:43:58.089Z,31.90
2019-05-18T11:46:53.577Z,31.90
2019-05-18T11:49:47.952Z,31.90
2019-05-18T11:52:42.079Z,31.90
2019-05-18T11:55:35.109Z,31.90
2019-05-18T11:58:28.028Z,31.90
2019-05-18T12:01:20.680Z,31.90
2019-05-18T12:04:13.769Z,31.90
2019-05-18T12:07:06.343Z,31.90
2019-05-18T12:09:59.488Z,31.90
2019-05-18T12:12:53.358Z,32.00
2019-05-18T12:15:48.317Z,31.90
2019-05-18T12:18:42.691Z,32.00
2019-05-18T12:21:36.900Z,32.00
2019-05-18T12:24:30.598Z,32.00
2019-05-18T12:27:25.833Z,31.90
2019-05-18T12:30:21.074Z,32.00
2019-05-18T12:33:14.248Z,32.00
2019-05-18T12:36:08.253Z,32.00
2019-05-18T12:39:01.058Z,32.00
2019-05-18T12:41:55.416Z,32.00
2019-05-18T12:44:48.397Z,32.00
2019-05-18T12:47:41.179Z,32.00
2019-05-18T12:50:34.583Z,32.00
2019-05-18T12:53:28.625Z,32.00
2019-05-18T12:56:21.745Z,32.00
2019-05-18T12:59:16.977Z,32.00
2019-05-18T13:02:11.674Z,32.00
2019-05-18T13:05:08.983Z,32.00
2019-05-18T13:08:04.727Z,32.00
2019-05-18T13:10:57.652Z,32.00
2019-05-18T13:13:51.042Z,32.00
2019-05-18T13:16:45.206Z,32.00
2019-05-18T13:19:40.486Z,32.00
2019-05-18T13:22:34.680Z,32.00
2019-05-18T13:25:31.867Z,32.00
2019-05-18T13:28:26.061Z,32.00
2019-05-18T13:31:19.714Z,32.00
2019-05-18T13:34:17.064Z,32.00
2019-05-18T13:37:12.794Z,32.00
2019-05-18T13:40:07.335Z,32.00
2019-05-18T13:43:02.639Z,32.00
2019-05-18T13:45:58.793Z,32.00
2019-05-18T13:48:54.404Z,32.00
2019-05-18T13:51:50.814Z,32.00
2019-05-18T13:55:02.278Z,32.00
2019-05-18T13:57:42.499Z,32.00
2019-05-18T14:00:38.726Z,32.00
2019-05-18T14:03:35.250Z,32.00
2019-05-18T14:06:31.084Z,32.00
2019-05-18T14:09:25.935Z,32.00
2019-05-18T14:12:18.983Z,32.00
2019-05-18T14:15:15.294Z,32.00
2019-05-18T14:18:11.692Z,32.00
2019-05-18T14:21:05.985Z,32.00
2019-05-18T14:23:59.996Z,32.00
2019-05-18T14:26:54.212Z,32.00
2019-05-18T14:29:47.816Z,32.00
2019-05-18T14:32:43.052Z,32.00
2019-05-18T14:35:37.342Z,32.00
2019-05-18T14:38:32.167Z,32.00
2019-05-18T14:41:27.866Z,32.00
2019-05-18T14:44:22.297Z,32.00
2019-05-18T14:47:17.633Z,32.00
2019-05-18T14:50:13.915Z,32.00
2019-05-18T14:53:07.816Z,32.00
2019-05-18T14:56:04.050Z,32.00
2019-05-18T14:59:00.383Z,32.00
2019-05-18T15:01:57.253Z,32.00
2019-05-18T15:04:55.094Z,32.00
2019-05-18T15:07:49.416Z,32.00
2019-05-18T15:10:42.868Z,32.00
2019-05-18T15:13:37.676Z,32.00
2019-05-18T15:16:35.676Z,32.00
2019-05-18T15:19:30.216Z,32.00
2019-05-18T15:22:26.214Z,32.00
2019-05-18T15:25:22.696Z,31.90
2019-05-18T15:28:16.868Z,32.00
2019-05-18T15:31:10.905Z,32.00
2019-05-18T15:34:04.786Z,32.00
2019-05-18T15:36:58.533Z,32.00
2019-05-18T15:39:52.713Z,32.00
2019-05-18T15:42:47.635Z,32.00
2019-05-18T15:45:40.996Z,32.00
2019-05-18T15:48:33.841Z,32.00
2019-05-18T15:51:28.746Z,32.00
2019-05-18T15:54:22.871Z,32.00
2019-05-18T15:57:15.885Z,32.00
2019-05-18T16:00:11.098Z,32.00
2019-05-18T16:03:04.524Z,32.00
2019-05-18T16:05:57.802Z,32.00
2019-05-18T16:08:50.997Z,32.00
2019-05-18T16:11:44.160Z,32.00
2019-05-18T16:14:37.178Z,32.00
2019-05-18T16:17:38.862Z,32.00
2019-05-18T16:20:25.621Z,32.00
2019-05-18T16:23:22.000Z,32.00
2019-05-18T16:26:21.576Z,32.00
2019-05-18T16:29:09.243Z,32.00
2019-05-18T16:32:02.611Z,32.00
2019-05-18T16:34:55.554Z,32.00
2019-05-18T16:37:48.688Z,32.00
2019-05-18T16:40:41.692Z,32.00
2019-05-18T16:43:35.707Z,32.00
2019-05-18T16:46:30.693Z,32.00
2019-05-18T16:49:24.529Z,32.00
2019-05-18T16:52:17.872Z,32.00
2019-05-18T16:55:11.158Z,32.00
2019-05-18T16:58:05.660Z,32.00
2019-05-18T17:01:00.267Z,32.00
2019-05-18T17:03:53.692Z,32.00
2019-05-18T17:06:48.046Z,32.00
2019-05-18T17:09:42.806Z,32.00
2019-05-18T17:12:39.251Z,32.00
2019-05-18T17:15:35.252Z,32.00
2019-05-18T17:18:29.829Z,32.00
2019-05-18T17:21:24.581Z,32.00
2019-05-18T17:24:20.082Z,32.00
2019-05-18T17:27:13.986Z,32.00
2019-05-18T17:30:09.342Z,32.00
2019-05-18T17:33:02.842Z,32.00
2019-05-18T17:36:00.227Z,32.00
2019-05-18T17:38:51.528Z,32.00
2019-05-18T17:41:44.794Z,32.00
2019-05-18T17:44:38.663Z,32.00
2019-05-18T17:47:32.139Z,32.00
2019-05-18T17:50:25.522Z,32.00
2019-05-18T17:53:19.823Z,32.00
2019-05-18T17:56:13.471Z,32.00
2019-05-18T17:59:11.666Z,32.00
2019-05-18T18:02:06.183Z,32.00
2019-05-18T18:05:02.441Z,32.00
2019-05-18T18:07:55.959Z,32.00
2019-05-18T18:10:49.742Z,32.00
2019-05-18T18:13:44.624Z,32.00
2019-05-18T18:16:39.909Z,32.00
2019-05-18T18:19:35.223Z,32.00
2019-05-18T18:22:30.196Z,32.00
2019-05-18T18:25:24.661Z,32.00
2019-05-18T18:28:18.648Z,32.00
2019-05-18T18:31:14.137Z,32.00
2019-05-18T18:34:07.731Z,32.00
2019-05-18T18:37:02.150Z,32.00
2019-05-18T18:39:56.981Z,32.00
2019-05-18T18:42:50.786Z,32.00
2019-05-18T18:45:44.812Z,32.00
2019-05-18T18:48:38.728Z,32.00
2019-05-18T18:51:32.353Z,32.00
2019-05-18T18:54:25.935Z,32.00
2019-05-18T18:57:18.896Z,32.00
2019-05-18T19:00:12.539Z,32.00
2019-05-18T19:03:06.041Z,32.00
2019-05-18T19:06:01.384Z,32.00
2019-05-18T19:08:56.124Z,32.00
2019-05-18T19:11:49.995Z,32.00
2019-05-18T19:14:46.184Z,32.00
2019-05-18T19:17:40.867Z,32.00
2019-05-18T19:20:34.497Z,32.00
2019-05-18T19:23:29.322Z,32.00
2019-05-18T19:26:24.776Z,32.00
2019-05-18T19:29:19.956Z,32.00
2019-05-18T19:32:14.630Z,32.00
2019-05-18T19:35:07.529Z,32.00
2019-05-18T19:38:01.373Z,32.00
2019-05-18T19:40:55.251Z,32.00
2019-05-18T19:43:48.114Z,32.00
2019-05-18T19:46:41.100Z,32.00
2019-05-18T19:49:34.483Z,32.00
2019-05-18T19:52:28.841Z,32.00
2019-05-18T19:55:22.039Z,32.00
2019-05-18T19:58:15.396Z,32.00
2019-05-18T20:01:09.958Z,32.00
2019-05-18T20:04:03.012Z,32.00
2019-05-18T20:06:56.556Z,32.00
2019-05-18T20:09:52.855Z,32.00
2019-05-18T20:12:46.395Z,32.00
2019-05-18T20:15:42.692Z,32.00
2019-05-18T20:18:38.983Z,32.00
2019-05-18T20:21:35.121Z,32.00
2019-05-18T20:24:31.897Z,32.00
2019-05-18T20:27:26.511Z,32.00
2019-05-18T20:30:21.352Z,32.00
2019-05-18T20:33:16.414Z,32.00
2019-05-18T20:36:11.056Z,32.00
2019-05-18T20:39:05.417Z,32.00
2019-05-18T20:41:59.587Z,32.00
2019-05-18T20:44:52.593Z,32.00
2019-05-18T20:47:46.329Z,32.00
2019-05-18T20:50:39.471Z,32.00
2019-05-18T20:53:32.683Z,32.00
2019-05-18T20:56:25.515Z,32.00
2019-05-18T20:59:18.550Z,32.00
2019-05-18T21:02:10.907Z,32.00
2019-05-18T21:05:03.793Z,32.00
2019-05-18T21:07:58.788Z,32.00
2019-05-18T21:10:52.536Z,32.00
2019-05-18T21:13:44.959Z,32.00
2019-05-18T21:16:38.225Z,32.00
2019-05-18T21:19:31.225Z,32.00
2019-05-18T21:22:24.515Z,32.00
2019-05-18T21:25:17.168Z,32.00
2019-05-18T21:28:09.946Z,32.00
2019-05-18T21:31:06.166Z,32.00
2019-05-18T21:33:59.813Z,32.00
2019-05-18T21:36:54.333Z,32.00
2019-05-18T21:39:47.409Z,32.00
2019-05-18T21:42:40.029Z,32.00
2019-05-18T21:45:33.667Z,32.00
2019-05-18T21:48:27.663Z,32.00
2019-05-18T21:51:22.458Z,32.00
2019-05-18T21:54:16.276Z,32.00
2019-05-18T21:57:10.087Z,32.00
2019-05-18T22:00:03.989Z,32.00
2019-05-18T22:02:59.353Z,32.00
2019-05-18T22:05:53.550Z,32.00
2019-05-18T22:08:47.146Z,32.00
2019-05-18T22:11:42.363Z,32.00
2019-05-18T22:14:36.261Z,32.00
2019-05-18T22:17:30.452Z,32.00
2019-05-18T22:20:25.473Z,32.00
2019-05-18T22:23:20.339Z,32.00
2019-05-18T22:26:14.509Z,32.00
2019-05-18T22:29:08.498Z,32.10
2019-05-18T22:32:02.236Z,32.00
2019-05-18T22:34:56.025Z,32.00
2019-05-18T22:37:50.330Z,32.10
2019-05-18T22:40:46.054Z,32.00
2019-05-18T22:43:40.565Z,32.10
2019-05-18T22:46:34.679Z,32.00
2019-05-18T22:49:29.424Z,32.10
2019-05-18T22:52:22.835Z,32.10
2019-05-18T22:55:16.104Z,32.00
2019-05-18T22:58:10.130Z,32.00
2019-05-18T23:01:04.837Z,32.10
2019-05-18T23:03:59.723Z,32.00
2019-05-18T23:06:54.055Z,32.00
2019-05-18T23:09:49.046Z,32.00
2019-05-18T23:12:43.580Z,32.10
2019-05-18T23:15:37.787Z,32.00
2019-05-18T23:18:31.733Z,32.00
2019-05-18T23:21:25.985Z,32.10
2019-05-18T23:24:20.124Z,32.00
2019-05-18T23:27:14.932Z,32.00
2019-05-18T23:30:08.191Z,32.10
2019-05-18T23:33:03.822Z,32.10
2019-05-18T23:35:57.159Z,32.00
2019-05-18T23:38:50.331Z,32.10
2019-05-18T23:41:45.011Z,32.00
2019-05-18T23:44:39.463Z,32.10
2019-05-18T23:47:34.955Z,32.10
2019-05-18T23:50:29.257Z,32.00
2019-05-18T23:53:24.221Z,32.00
2019-05-18T23:56:18.798Z,32.10
2019-05-18T23:59:14.527Z,32.10
